sensor_id;sensor_type;location;lat;lon;timestamp;P1;durP1;ratioP1;P2;durP2;ratioP2
70667;SDS011;58242;51.250;-1.118;2023-09-12T00:00:27;1.70;;;1.60;;
70667;SDS011;58242;51.250;-1.118;2023-09-12T00:02:52;1.58;;;1.48;;
70667;SDS011;58242;51.250;-1.118;2023-09-12T00:05:17;1.48;;;1.25;;
70667;SDS011;58242;51.250;-1.118;2023-09-12T00:07:43;1.40;;;1.40;;
70667;SDS011;58242;51.250;-1.118;2023-09-12T00:10:08;1.45;;;1.35;;
70667;SDS011;58242;51.250;-1.118;2023-09-12T00:12:34;1.33;;;1.30;;
70667;SDS011;58242;51.250;-1.118;2023-09-12T00:15:00;1.48;;;1.35;;
70667;SDS011;58242;51.250;-1.118;2023-09-12T00:17:25;1.48;;;1.40;;
70667;SDS011;58242;51.250;-1.118;2023-09-12T00:19:51;1.75;;;1.40;;
70667;SDS011;58242;51.250;-1.118;2023-09-12T00:22:17;1.65;;;1.55;;
70667;SDS011;58242;51.250;-1.118;2023-09-12T00:24:42;1.48;;;1.38;;
70667;SDS011;58242;51.250;-1.118;2023-09-12T00:27:07;1.48;;;1.38;;
70667;SDS011;58242;51.250;-1.118;2023-09-12T00:29:33;1.70;;;1.60;;
70667;SDS011;58242;51.250;-1.118;2023-09-12T00:31:58;1.63;;;1.52;;
70667;SDS011;58242;51.250;-1.118;2023-09-12T00:34:24;1.58;;;1.48;;
70667;SDS011;58242;51.250;-1.118;2023-09-12T00:36:49;1.45;;;1.40;;
70667;SDS011;58242;51.250;-1.118;2023-09-12T00:39:14;1.35;;;1.25;;
70667;SDS011;58242;51.250;-1.118;2023-09-12T00:41:39;1.60;;;1.50;;
70667;SDS011;58242;51.250;-1.118;2023-09-12T00:44:05;1.70;;;1.60;;
70667;SDS011;58242;51.250;-1.118;2023-09-12T00:46:30;1.40;;;1.40;;
70667;SDS011;58242;51.250;-1.118;2023-09-12T00:48:57;4.05;;;2.03;;
70667;SDS011;58242;51.250;-1.118;2023-09-12T00:51:24;1.70;;;1.60;;
70667;SDS011;58242;51.250;-1.118;2023-09-12T00:53:50;1.42;;;1.42;;
70667;SDS011;58242;51.250;-1.118;2023-09-12T00:56:16;1.60;;;1.50;;
70667;SDS011;58242;51.250;-1.118;2023-09-12T00:58:42;1.98;;;1.75;;
70667;SDS011;58242;51.250;-1.118;2023-09-12T01:01:07;1.67;;;1.58;;
70667;SDS011;58242;51.250;-1.118;2023-09-12T01:03:32;1.60;;;1.50;;
70667;SDS011;58242;51.250;-1.118;2023-09-12T01:05:59;3.05;;;1.80;;
70667;SDS011;58242;51.250;-1.118;2023-09-12T01:08:25;2.08;;;1.70;;
70667;SDS011;58242;51.250;-1.118;2023-09-12T01:10:52;1.77;;;1.67;;
70667;SDS011;58242;51.250;-1.118;2023-09-12T01:13:18;1.58;;;1.52;;
70667;SDS011;58242;51.250;-1.118;2023-09-12T01:15:43;1.42;;;1.33;;
70667;SDS011;58242;51.250;-1.118;2023-09-12T01:18:09;2.00;;;1.90;;
70667;SDS011;58242;51.250;-1.118;2023-09-12T01:20:34;1.70;;;1.60;;
70667;SDS011;58242;51.250;-1.118;2023-09-12T01:28:54;1.65;;;1.60;;
70667;SDS011;58242;51.250;-1.118;2023-09-12T01:31:20;1.70;;;1.60;;
70667;SDS011;58242;51.250;-1.118;2023-09-12T01:33:48;2.05;;;1.90;;
70667;SDS011;58242;51.250;-1.118;2023-09-12T01:36:13;1.95;;;1.85;;
70667;SDS011;58242;51.250;-1.118;2023-09-12T01:38:38;1.85;;;1.75;;
70667;SDS011;58242;51.250;-1.118;2023-09-12T01:41:04;1.70;;;1.60;;
70667;SDS011;58242;51.250;-1.118;2023-09-12T01:43:30;2.03;;;1.92;;
70667;SDS011;58242;51.250;-1.118;2023-09-12T01:45:57;1.90;;;1.80;;
70667;SDS011;58242;51.250;-1.118;2023-09-12T01:48:26;2.17;;;2.08;;
70667;SDS011;58242;51.250;-1.118;2023-09-12T01:50:58;2.72;;;2.08;;
70667;SDS011;58242;51.250;-1.118;2023-09-12T01:53:25;1.90;;;1.80;;
70667;SDS011;58242;51.250;-1.118;2023-09-12T01:55:50;1.98;;;1.80;;
70667;SDS011;58242;51.250;-1.118;2023-09-12T01:58:16;1.83;;;1.73;;
70667;SDS011;58242;51.250;-1.118;2023-09-12T02:00:41;1.90;;;1.80;;
70667;SDS011;58242;51.250;-1.118;2023-09-12T02:03:07;1.95;;;1.80;;
70667;SDS011;58242;51.250;-1.118;2023-09-12T02:05:32;1.77;;;1.67;;
70667;SDS011;58242;51.250;-1.118;2023-09-12T02:07:58;1.83;;;1.73;;
70667;SDS011;58242;51.250;-1.118;2023-09-12T02:10:26;1.92;;;1.83;;
70667;SDS011;58242;51.250;-1.118;2023-09-12T02:12:52;2.05;;;1.95;;
70667;SDS011;58242;51.250;-1.118;2023-09-12T02:15:17;2.53;;;2.03;;
70667;SDS011;58242;51.250;-1.118;2023-09-12T02:17:42;1.90;;;1.70;;
70667;SDS011;58242;51.250;-1.118;2023-09-12T02:20:08;2.05;;;1.95;;
70667;SDS011;58242;51.250;-1.118;2023-09-12T02:22:34;1.88;;;1.77;;
70667;SDS011;58242;51.250;-1.118;2023-09-12T02:25:00;2.10;;;1.90;;
70667;SDS011;58242;51.250;-1.118;2023-09-12T02:27:25;2.08;;;1.98;;
70667;SDS011;58242;51.250;-1.118;2023-09-12T02:29:50;1.88;;;1.77;;
70667;SDS011;58242;51.250;-1.118;2023-09-12T02:32:16;1.73;;;1.63;;
70667;SDS011;58242;51.250;-1.118;2023-09-12T02:34:41;2.08;;;1.85;;
70667;SDS011;58242;51.250;-1.118;2023-09-12T02:37:06;1.80;;;1.70;;
70667;SDS011;58242;51.250;-1.118;2023-09-12T02:39:31;2.70;;;2.08;;
70667;SDS011;58242;51.250;-1.118;2023-09-12T02:41:57;2.03;;;1.92;;
70667;SDS011;58242;51.250;-1.118;2023-09-12T02:44:22;1.38;;;1.38;;
70667;SDS011;58242;51.250;-1.118;2023-09-12T02:46:47;1.50;;;1.50;;
70667;SDS011;58242;51.250;-1.118;2023-09-12T02:49:13;1.77;;;1.67;;
70667;SDS011;58242;51.250;-1.118;2023-09-12T02:51:39;2.08;;;1.98;;
70667;SDS011;58242;51.250;-1.118;2023-09-12T02:54:05;2.38;;;2.00;;
70667;SDS011;58242;51.250;-1.118;2023-09-12T02:56:30;1.42;;;1.42;;
70667;SDS011;58242;51.250;-1.118;2023-09-12T02:58:56;1.60;;;1.50;;
70667;SDS011;58242;51.250;-1.118;2023-09-12T03:01:21;1.42;;;1.42;;
70667;SDS011;58242;51.250;-1.118;2023-09-12T03:03:47;1.55;;;1.48;;
70667;SDS011;58242;51.250;-1.118;2023-09-12T03:06:15;1.70;;;1.60;;
70667;SDS011;58242;51.250;-1.118;2023-09-12T03:08:41;1.55;;;1.45;;
70667;SDS011;58242;51.250;-1.118;2023-09-12T03:11:08;1.63;;;1.63;;
70667;SDS011;58242;51.250;-1.118;2023-09-12T03:13:34;1.42;;;1.42;;
70667;SDS011;58242;51.250;-1.118;2023-09-12T03:16:02;1.73;;;1.63;;
70667;SDS011;58242;51.250;-1.118;2023-09-12T03:18:27;1.80;;;1.70;;
70667;SDS011;58242;51.250;-1.118;2023-09-12T03:20:53;1.70;;;1.60;;
70667;SDS011;58242;51.250;-1.118;2023-09-12T03:23:19;1.60;;;1.50;;
70667;SDS011;58242;51.250;-1.118;2023-09-12T03:25:45;1.80;;;1.70;;
70667;SDS011;58242;51.250;-1.118;2023-09-12T03:28:10;1.83;;;1.73;;
70667;SDS011;58242;51.250;-1.118;2023-09-12T03:30:36;1.67;;;1.58;;
70667;SDS011;58242;51.250;-1.118;2023-09-12T03:33:03;1.92;;;1.73;;
70667;SDS011;58242;51.250;-1.118;2023-09-12T03:35:29;2.58;;;1.90;;
70667;SDS011;58242;51.250;-1.118;2023-09-12T03:37:56;2.45;;;1.90;;
70667;SDS011;58242;51.250;-1.118;2023-09-12T03:40:22;1.90;;;1.80;;
70667;SDS011;58242;51.250;-1.118;2023-09-12T03:42:47;2.03;;;1.92;;
70667;SDS011;58242;51.250;-1.118;2023-09-12T03:45:12;1.83;;;1.73;;
70667;SDS011;58242;51.250;-1.118;2023-09-12T03:47:38;2.10;;;2.00;;
70667;SDS011;58242;51.250;-1.118;2023-09-12T03:50:03;1.80;;;1.70;;
70667;SDS011;58242;51.250;-1.118;2023-09-12T03:52:29;2.08;;;1.98;;
70667;SDS011;58242;51.250;-1.118;2023-09-12T03:54:54;2.17;;;1.80;;
70667;SDS011;58242;51.250;-1.118;2023-09-12T03:57:20;1.77;;;1.67;;
70667;SDS011;58242;51.250;-1.118;2023-09-12T03:59:45;1.60;;;1.60;;
70667;SDS011;58242;51.250;-1.118;2023-09-12T04:02:11;1.55;;;1.55;;
70667;SDS011;58242;51.250;-1.118;2023-09-12T04:04:37;2.10;;;2.00;;
70667;SDS011;58242;51.250;-1.118;2023-09-12T04:07:03;1.85;;;1.75;;
70667;SDS011;58242;51.250;-1.118;2023-09-12T04:09:29;1.90;;;1.80;;
70667;SDS011;58242;51.250;-1.118;2023-09-12T04:11:54;2.05;;;1.95;;
70667;SDS011;58242;51.250;-1.118;2023-09-12T04:14:20;1.80;;;1.70;;
70667;SDS011;58242;51.250;-1.118;2023-09-12T04:16:45;1.95;;;1.88;;
70667;SDS011;58242;51.250;-1.118;2023-09-12T04:19:11;1.90;;;1.80;;
70667;SDS011;58242;51.250;-1.118;2023-09-12T04:21:38;1.92;;;1.83;;
70667;SDS011;58242;51.250;-1.118;2023-09-12T04:24:04;1.90;;;1.80;;
70667;SDS011;58242;51.250;-1.118;2023-09-12T04:26:30;1.67;;;1.60;;
70667;SDS011;58242;51.250;-1.118;2023-09-12T04:28:55;2.53;;;2.33;;
70667;SDS011;58242;51.250;-1.118;2023-09-12T04:31:20;2.20;;;2.10;;
70667;SDS011;58242;51.250;-1.118;2023-09-12T04:33:45;2.13;;;2.03;;
70667;SDS011;58242;51.250;-1.118;2023-09-12T04:36:11;2.15;;;2.05;;
70667;SDS011;58242;51.250;-1.118;2023-09-12T04:38:36;2.10;;;2.00;;
70667;SDS011;58242;51.250;-1.118;2023-09-12T04:41:02;2.20;;;1.90;;
70667;SDS011;58242;51.250;-1.118;2023-09-12T04:43:30;2.22;;;2.03;;
70667;SDS011;58242;51.250;-1.118;2023-09-12T04:45:56;2.25;;;2.13;;
70667;SDS011;58242;51.250;-1.118;2023-09-12T04:48:21;2.22;;;2.10;;
70667;SDS011;58242;51.250;-1.118;2023-09-12T04:50:46;2.20;;;2.00;;
70667;SDS011;58242;51.250;-1.118;2023-09-12T04:53:12;2.40;;;2.30;;
70667;SDS011;58242;51.250;-1.118;2023-09-12T04:55:37;2.25;;;2.15;;
70667;SDS011;58242;51.250;-1.118;2023-09-12T04:58:04;2.53;;;2.42;;
70667;SDS011;58242;51.250;-1.118;2023-09-12T05:00:29;2.50;;;2.30;;
70667;SDS011;58242;51.250;-1.118;2023-09-12T05:02:55;2.45;;;2.30;;
70667;SDS011;58242;51.250;-1.118;2023-09-12T05:05:20;2.17;;;2.08;;
70667;SDS011;58242;51.250;-1.118;2023-09-12T05:07:45;2.40;;;2.30;;
70667;SDS011;58242;51.250;-1.118;2023-09-12T05:10:11;2.67;;;2.58;;
70667;SDS011;58242;51.250;-1.118;2023-09-12T05:12:36;2.35;;;2.20;;
70667;SDS011;58242;51.250;-1.118;2023-09-12T05:15:01;3.13;;;2.92;;
70667;SDS011;58242;51.250;-1.118;2023-09-12T05:17:27;3.05;;;2.85;;
70667;SDS011;58242;51.250;-1.118;2023-09-12T05:19:53;3.05;;;2.92;;
70667;SDS011;58242;51.250;-1.118;2023-09-12T05:22:18;3.50;;;3.30;;
70667;SDS011;58242;51.250;-1.118;2023-09-12T05:24:44;2.80;;;2.67;;
70667;SDS011;58242;51.250;-1.118;2023-09-12T05:27:10;3.28;;;3.03;;
70667;SDS011;58242;51.250;-1.118;2023-09-12T05:29:36;3.55;;;3.35;;
70667;SDS011;58242;51.250;-1.118;2023-09-12T05:32:02;2.80;;;2.70;;
70667;SDS011;58242;51.250;-1.118;2023-09-12T05:34:28;2.70;;;2.50;;
70667;SDS011;58242;51.250;-1.118;2023-09-12T05:36:53;2.72;;;2.53;;
70667;SDS011;58242;51.250;-1.118;2023-09-12T05:39:19;2.97;;;2.72;;
70667;SDS011;58242;51.250;-1.118;2023-09-12T05:41:44;2.80;;;2.70;;
70667;SDS011;58242;51.250;-1.118;2023-09-12T05:44:09;3.25;;;3.05;;
70667;SDS011;58242;51.250;-1.118;2023-09-12T05:46:37;2.67;;;2.50;;
70667;SDS011;58242;51.250;-1.118;2023-09-12T05:49:03;2.70;;;2.50;;
70667;SDS011;58242;51.250;-1.118;2023-09-12T05:51:28;2.45;;;2.35;;
70667;SDS011;58242;51.250;-1.118;2023-09-12T05:53:54;3.10;;;3.00;;
70667;SDS011;58242;51.250;-1.118;2023-09-12T05:56:19;2.40;;;2.30;;
70667;SDS011;58242;51.250;-1.118;2023-09-12T05:58:45;2.80;;;2.60;;
70667;SDS011;58242;51.250;-1.118;2023-09-12T06:01:11;2.72;;;2.63;;
70667;SDS011;58242;51.250;-1.118;2023-09-12T06:03:36;2.80;;;2.70;;
70667;SDS011;58242;51.250;-1.118;2023-09-12T06:06:01;2.75;;;2.63;;
70667;SDS011;58242;51.250;-1.118;2023-09-12T06:08:27;2.60;;;2.50;;
70667;SDS011;58242;51.250;-1.118;2023-09-12T06:10:52;2.60;;;2.50;;
70667;SDS011;58242;51.250;-1.118;2023-09-12T06:13:19;2.88;;;2.78;;
70667;SDS011;58242;51.250;-1.118;2023-09-12T06:15:44;3.10;;;2.90;;
70667;SDS011;58242;51.250;-1.118;2023-09-12T06:18:10;2.42;;;2.33;;
70667;SDS011;58242;51.250;-1.118;2023-09-12T06:20:35;2.50;;;2.40;;
70667;SDS011;58242;51.250;-1.118;2023-09-12T06:23:00;2.92;;;2.72;;
70667;SDS011;58242;51.250;-1.118;2023-09-12T06:25:26;2.88;;;2.67;;
70667;SDS011;58242;51.250;-1.118;2023-09-12T06:27:53;2.40;;;2.30;;
70667;SDS011;58242;51.250;-1.118;2023-09-12T06:30:19;2.40;;;2.30;;
70667;SDS011;58242;51.250;-1.118;2023-09-12T06:32:44;2.50;;;2.17;;
70667;SDS011;58242;51.250;-1.118;2023-09-12T06:35:09;1.73;;;1.63;;
70667;SDS011;58242;51.250;-1.118;2023-09-12T06:37:36;2.60;;;2.17;;
70667;SDS011;58242;51.250;-1.118;2023-09-12T06:40:02;2.03;;;1.92;;
70667;SDS011;58242;51.250;-1.118;2023-09-12T06:42:28;2.50;;;2.40;;
70667;SDS011;58242;51.250;-1.118;2023-09-12T06:44:54;2.25;;;2.15;;
70667;SDS011;58242;51.250;-1.118;2023-09-12T06:47:19;2.25;;;2.15;;
70667;SDS011;58242;51.250;-1.118;2023-09-12T06:49:44;2.10;;;2.00;;
70667;SDS011;58242;51.250;-1.118;2023-09-12T06:52:10;2.50;;;1.60;;
70667;SDS011;58242;51.250;-1.118;2023-09-12T06:54:35;1.73;;;1.63;;
70667;SDS011;58242;51.250;-1.118;2023-09-12T06:57:00;2.15;;;1.77;;
70667;SDS011;58242;51.250;-1.118;2023-09-12T06:59:26;1.90;;;1.80;;
70667;SDS011;58242;51.250;-1.118;2023-09-12T07:01:51;1.98;;;1.88;;
70667;SDS011;58242;51.250;-1.118;2023-09-12T07:04:16;2.55;;;2.45;;
70667;SDS011;58242;51.250;-1.118;2023-09-12T07:06:42;1.80;;;1.70;;
70667;SDS011;58242;51.250;-1.118;2023-09-12T07:09:07;1.90;;;1.80;;
70667;SDS011;58242;51.250;-1.118;2023-09-12T07:11:34;1.33;;;1.33;;
70667;SDS011;58242;51.250;-1.118;2023-09-12T07:13:59;1.60;;;1.60;;
70667;SDS011;58242;51.250;-1.118;2023-09-12T07:16:25;1.50;;;1.40;;
70667;SDS011;58242;51.250;-1.118;2023-09-12T07:18:50;1.63;;;1.58;;
70667;SDS011;58242;51.250;-1.118;2023-09-12T07:21:16;2.03;;;1.92;;
70667;SDS011;58242;51.250;-1.118;2023-09-12T07:23:42;1.75;;;1.65;;
70667;SDS011;58242;51.250;-1.118;2023-09-12T07:26:11;1.80;;;1.80;;
70667;SDS011;58242;51.250;-1.118;2023-09-12T07:28:38;1.63;;;1.58;;
70667;SDS011;58242;51.250;-1.118;2023-09-12T07:31:03;1.80;;;1.80;;
70667;SDS011;58242;51.250;-1.118;2023-09-12T07:33:29;1.92;;;1.60;;
70667;SDS011;58242;51.250;-1.118;2023-09-12T07:35:54;2.42;;;2.33;;
70667;SDS011;58242;51.250;-1.118;2023-09-12T07:38:20;1.98;;;1.88;;
70667;SDS011;58242;51.250;-1.118;2023-09-12T07:40:46;2.17;;;2.08;;
70667;SDS011;58242;51.250;-1.118;2023-09-12T07:43:11;1.80;;;1.70;;
70667;SDS011;58242;51.250;-1.118;2023-09-12T07:45:37;2.20;;;2.10;;
70667;SDS011;58242;51.250;-1.118;2023-09-12T07:48:06;2.20;;;2.10;;
70667;SDS011;58242;51.250;-1.118;2023-09-12T07:50:32;1.98;;;1.88;;
70667;SDS011;58242;51.250;-1.118;2023-09-12T07:52:58;1.70;;;1.60;;
70667;SDS011;58242;51.250;-1.118;2023-09-12T07:55:23;1.90;;;1.80;;
70667;SDS011;58242;51.250;-1.118;2023-09-12T07:57:48;2.00;;;1.90;;
70667;SDS011;58242;51.250;-1.118;2023-09-12T08:00:14;2.28;;;2.10;;
70667;SDS011;58242;51.250;-1.118;2023-09-12T08:02:39;1.95;;;1.85;;
70667;SDS011;58242;51.250;-1.118;2023-09-12T08:05:05;2.17;;;1.98;;
70667;SDS011;58242;51.250;-1.118;2023-09-12T08:07:31;2.10;;;2.00;;
70667;SDS011;58242;51.250;-1.118;2023-09-12T08:09:56;2.08;;;1.98;;
70667;SDS011;58242;51.250;-1.118;2023-09-12T08:12:23;2.00;;;1.90;;
70667;SDS011;58242;51.250;-1.118;2023-09-12T08:14:50;1.80;;;1.80;;
70667;SDS011;58242;51.250;-1.118;2023-09-12T08:17:16;2.03;;;1.92;;
70667;SDS011;58242;51.250;-1.118;2023-09-12T08:19:42;1.85;;;1.70;;
70667;SDS011;58242;51.250;-1.118;2023-09-12T08:22:08;1.70;;;1.60;;
70667;SDS011;58242;51.250;-1.118;2023-09-12T08:24:34;1.73;;;1.63;;
70667;SDS011;58242;51.250;-1.118;2023-09-12T08:27:00;1.65;;;1.63;;
70667;SDS011;58242;51.250;-1.118;2023-09-12T08:29:27;1.98;;;1.80;;
70667;SDS011;58242;51.250;-1.118;2023-09-12T08:31:53;2.03;;;1.90;;
70667;SDS011;58242;51.250;-1.118;2023-09-12T08:34:19;2.13;;;1.92;;
70667;SDS011;58242;51.250;-1.118;2023-09-12T08:36:45;2.10;;;2.00;;
70667;SDS011;58242;51.250;-1.118;2023-09-12T08:39:11;2.08;;;1.98;;
70667;SDS011;58242;51.250;-1.118;2023-09-12T08:41:39;2.33;;;1.97;;
70667;SDS011;58242;51.250;-1.118;2023-09-12T08:44:04;2.03;;;1.92;;
70667;SDS011;58242;51.250;-1.118;2023-09-12T08:46:30;1.98;;;1.77;;
70667;SDS011;58242;51.250;-1.118;2023-09-12T08:48:56;2.10;;;1.90;;
70667;SDS011;58242;51.250;-1.118;2023-09-12T08:51:24;1.90;;;1.80;;
70667;SDS011;58242;51.250;-1.118;2023-09-12T08:53:50;2.20;;;2.10;;
70667;SDS011;58242;51.250;-1.118;2023-09-12T08:56:16;1.63;;;1.52;;
70667;SDS011;58242;51.250;-1.118;2023-09-12T08:58:43;1.95;;;1.80;;
70667;SDS011;58242;51.250;-1.118;2023-09-12T09:01:09;1.40;;;1.40;;
70667;SDS011;58242;51.250;-1.118;2023-09-12T09:06:03;2.10;;;2.00;;
70667;SDS011;58242;51.250;-1.118;2023-09-12T09:08:30;2.60;;;2.40;;
70667;SDS011;58242;51.250;-1.118;2023-09-12T09:10:58;3.05;;;2.15;;
70667;SDS011;58242;51.250;-1.118;2023-09-12T09:13:26;2.75;;;2.40;;
70667;SDS011;58242;51.250;-1.118;2023-09-12T09:16:13;2.53;;;2.20;;
70667;SDS011;58242;51.250;-1.118;2023-09-12T09:21:29;1.83;;;1.80;;
70667;SDS011;58242;51.250;-1.118;2023-09-12T09:23:57;2.40;;;2.10;;
70667;SDS011;58242;51.250;-1.118;2023-09-12T09:26:24;1.88;;;1.83;;
70667;SDS011;58242;51.250;-1.118;2023-09-12T09:29:03;1.60;;;1.50;;
70667;SDS011;58242;51.250;-1.118;2023-09-12T09:31:28;1.80;;;1.70;;
70667;SDS011;58242;51.250;-1.118;2023-09-12T09:33:54;2.22;;;1.98;;
70667;SDS011;58242;51.250;-1.118;2023-09-12T09:36:20;1.52;;;1.42;;
70667;SDS011;58242;51.250;-1.118;2023-09-12T09:38:45;1.60;;;1.50;;
70667;SDS011;58242;51.250;-1.118;2023-09-12T09:41:11;2.10;;;2.00;;
70667;SDS011;58242;51.250;-1.118;2023-09-12T09:43:36;1.92;;;1.83;;
70667;SDS011;58242;51.250;-1.118;2023-09-12T09:46:02;1.88;;;1.77;;
70667;SDS011;58242;51.250;-1.118;2023-09-12T09:48:28;2.00;;;1.90;;
70667;SDS011;58242;51.250;-1.118;2023-09-12T09:50:56;2.00;;;1.90;;
70667;SDS011;58242;51.250;-1.118;2023-09-12T09:53:31;2.40;;;2.20;;
70667;SDS011;58242;51.250;-1.118;2023-09-12T09:56:08;1.90;;;1.90;;
70667;SDS011;58242;51.250;-1.118;2023-09-12T09:58:35;1.70;;;1.60;;
70667;SDS011;58242;51.250;-1.118;2023-09-12T10:01:01;1.92;;;1.83;;
70667;SDS011;58242;51.250;-1.118;2023-09-12T10:03:29;1.90;;;1.80;;
70667;SDS011;58242;51.250;-1.118;2023-09-12T10:05:57;2.10;;;2.00;;
70667;SDS011;58242;51.250;-1.118;2023-09-12T10:08:28;2.00;;;1.90;;
70667;SDS011;58242;51.250;-1.118;2023-09-12T10:10:54;1.88;;;1.80;;
70667;SDS011;58242;51.250;-1.118;2023-09-12T10:13:19;2.10;;;2.00;;
70667;SDS011;58242;51.250;-1.118;2023-09-12T10:15:46;1.70;;;1.70;;
70667;SDS011;58242;51.250;-1.118;2023-09-12T10:18:14;2.17;;;1.90;;
70667;SDS011;58242;51.250;-1.118;2023-09-12T10:20:54;1.90;;;1.80;;
70667;SDS011;58242;51.250;-1.118;2023-09-12T10:25:50;1.83;;;1.73;;
70667;SDS011;58242;51.250;-1.118;2023-09-12T10:28:16;2.10;;;2.00;;
70667;SDS011;58242;51.250;-1.118;2023-09-12T10:30:42;1.88;;;1.70;;
70667;SDS011;58242;51.250;-1.118;2023-09-12T10:33:07;1.73;;;1.73;;
70667;SDS011;58242;51.250;-1.118;2023-09-12T10:35:33;1.60;;;1.58;;
70667;SDS011;58242;51.250;-1.118;2023-09-12T10:38:01;1.83;;;1.73;;
70667;SDS011;58242;51.250;-1.118;2023-09-12T10:40:31;1.95;;;1.85;;
70667;SDS011;58242;51.250;-1.118;2023-09-12T10:43:00;1.65;;;1.63;;
70667;SDS011;58242;51.250;-1.118;2023-09-12T10:45:31;1.75;;;1.70;;
70667;SDS011;58242;51.250;-1.118;2023-09-12T10:47:57;1.90;;;1.80;;
70667;SDS011;58242;51.250;-1.118;2023-09-12T10:50:23;1.90;;;1.80;;
70667;SDS011;58242;51.250;-1.118;2023-09-12T10:52:48;2.08;;;1.98;;
70667;SDS011;58242;51.250;-1.118;2023-09-12T10:55:16;2.05;;;1.95;;
70667;SDS011;58242;51.250;-1.118;2023-09-12T10:58:04;1.63;;;1.52;;
70667;SDS011;58242;51.250;-1.118;2023-09-12T11:00:31;1.83;;;1.73;;
70667;SDS011;58242;51.250;-1.118;2023-09-12T11:02:59;1.48;;;1.48;;
70667;SDS011;58242;51.250;-1.118;2023-09-12T11:05:52;1.80;;;1.70;;
70667;SDS011;58242;51.250;-1.118;2023-09-12T11:08:18;2.00;;;1.90;;
70667;SDS011;58242;51.250;-1.118;2023-09-12T11:10:44;2.10;;;2.00;;
70667;SDS011;58242;51.250;-1.118;2023-09-12T11:13:16;1.80;;;1.70;;
70667;SDS011;58242;51.250;-1.118;2023-09-12T11:16:09;1.80;;;1.80;;
70667;SDS011;58242;51.250;-1.118;2023-09-12T11:18:40;2.00;;;1.92;;
70667;SDS011;58242;51.250;-1.118;2023-09-12T11:21:39;2.17;;;2.08;;
70667;SDS011;58242;51.250;-1.118;2023-09-12T11:24:05;2.50;;;2.40;;
70667;SDS011;58242;51.250;-1.118;2023-09-12T11:26:31;2.03;;;1.98;;
70667;SDS011;58242;51.250;-1.118;2023-09-12T11:28:56;2.28;;;2.08;;
70667;SDS011;58242;51.250;-1.118;2023-09-12T11:31:28;2.10;;;2.00;;
70667;SDS011;58242;51.250;-1.118;2023-09-12T11:33:53;2.67;;;2.47;;
70667;SDS011;58242;51.250;-1.118;2023-09-12T11:36:19;1.73;;;1.70;;
70667;SDS011;58242;51.250;-1.118;2023-09-12T11:38:46;2.40;;;2.30;;
70667;SDS011;58242;51.250;-1.118;2023-09-12T11:41:14;2.75;;;2.55;;
70667;SDS011;58242;51.250;-1.118;2023-09-12T11:44:02;2.42;;;2.22;;
70667;SDS011;58242;51.250;-1.118;2023-09-12T11:46:29;1.98;;;1.88;;
70667;SDS011;58242;51.250;-1.118;2023-09-12T11:48:56;1.90;;;1.80;;
70667;SDS011;58242;51.250;-1.118;2023-09-12T11:51:21;2.00;;;1.90;;
70667;SDS011;58242;51.250;-1.118;2023-09-12T11:53:51;2.10;;;2.00;;
70667;SDS011;58242;51.250;-1.118;2023-09-12T11:56:18;2.17;;;2.08;;
70667;SDS011;58242;51.250;-1.118;2023-09-12T11:58:43;2.00;;;1.90;;
70667;SDS011;58242;51.250;-1.118;2023-09-12T12:01:09;1.90;;;1.80;;
70667;SDS011;58242;51.250;-1.118;2023-09-12T12:03:37;1.92;;;1.70;;
70667;SDS011;58242;51.250;-1.118;2023-09-12T12:06:03;2.10;;;2.00;;
70667;SDS011;58242;51.250;-1.118;2023-09-12T12:08:29;1.90;;;1.80;;
70667;SDS011;58242;51.250;-1.118;2023-09-12T12:10:56;2.20;;;2.10;;
70667;SDS011;58242;51.250;-1.118;2023-09-12T12:13:23;2.10;;;2.00;;
70667;SDS011;58242;51.250;-1.118;2023-09-12T12:15:49;2.10;;;2.00;;
70667;SDS011;58242;51.250;-1.118;2023-09-12T12:18:14;1.80;;;1.70;;
70667;SDS011;58242;51.250;-1.118;2023-09-12T12:20:40;2.10;;;2.00;;
70667;SDS011;58242;51.250;-1.118;2023-09-12T12:23:06;1.85;;;1.75;;
70667;SDS011;58242;51.250;-1.118;2023-09-12T12:25:32;2.10;;;2.00;;
70667;SDS011;58242;51.250;-1.118;2023-09-12T12:27:59;1.73;;;1.73;;
70667;SDS011;58242;51.250;-1.118;2023-09-12T12:30:24;1.60;;;1.60;;
70667;SDS011;58242;51.250;-1.118;2023-09-12T12:32:50;1.80;;;1.70;;
70667;SDS011;58242;51.250;-1.118;2023-09-12T12:35:22;1.73;;;1.63;;
70667;SDS011;58242;51.250;-1.118;2023-09-12T12:37:49;2.30;;;2.10;;
70667;SDS011;58242;51.250;-1.118;2023-09-12T12:40:15;1.83;;;1.73;;
70667;SDS011;58242;51.250;-1.118;2023-09-12T12:42:42;2.10;;;2.00;;
70667;SDS011;58242;51.250;-1.118;2023-09-12T12:45:11;1.90;;;1.80;;
70667;SDS011;58242;51.250;-1.118;2023-09-12T12:47:38;1.83;;;1.73;;
70667;SDS011;58242;51.250;-1.118;2023-09-12T12:50:07;1.73;;;1.70;;
70667;SDS011;58242;51.250;-1.118;2023-09-12T12:52:36;1.70;;;1.60;;
70667;SDS011;58242;51.250;-1.118;2023-09-12T12:55:03;1.70;;;1.70;;
70667;SDS011;58242;51.250;-1.118;2023-09-12T12:57:29;1.55;;;1.55;;
70667;SDS011;58242;51.250;-1.118;2023-09-12T12:59:55;1.90;;;1.80;;
70667;SDS011;58242;51.250;-1.118;2023-09-12T13:02:20;2.20;;;2.00;;
70667;SDS011;58242;51.250;-1.118;2023-09-12T13:04:45;1.95;;;1.85;;
70667;SDS011;58242;51.250;-1.118;2023-09-12T13:07:10;2.00;;;1.90;;
70667;SDS011;58242;51.250;-1.118;2023-09-12T13:09:36;2.10;;;2.00;;
70667;SDS011;58242;51.250;-1.118;2023-09-12T13:12:02;2.00;;;1.90;;
70667;SDS011;58242;51.250;-1.118;2023-09-12T13:14:28;2.17;;;2.08;;
70667;SDS011;58242;51.250;-1.118;2023-09-12T13:16:59;2.47;;;2.20;;
70667;SDS011;58242;51.250;-1.118;2023-09-12T13:19:25;2.58;;;2.40;;
70667;SDS011;58242;51.250;-1.118;2023-09-12T13:21:50;2.20;;;2.10;;
70667;SDS011;58242;51.250;-1.118;2023-09-12T13:24:16;2.70;;;2.50;;
70667;SDS011;58242;51.250;-1.118;2023-09-12T13:26:41;3.88;;;2.53;;
70667;SDS011;58242;51.250;-1.118;2023-09-12T13:29:06;1.88;;;1.67;;
70667;SDS011;58242;51.250;-1.118;2023-09-12T13:31:32;3.33;;;2.22;;
70667;SDS011;58242;51.250;-1.118;2023-09-12T13:33:57;2.30;;;2.15;;
70667;SDS011;58242;51.250;-1.118;2023-09-12T13:36:22;2.17;;;2.08;;
70667;SDS011;58242;51.250;-1.118;2023-09-12T13:38:48;2.05;;;1.90;;
70667;SDS011;58242;51.250;-1.118;2023-09-12T13:41:16;1.92;;;1.83;;
70667;SDS011;58242;51.250;-1.118;2023-09-12T13:43:41;1.60;;;1.50;;
70667;SDS011;58242;51.250;-1.118;2023-09-12T13:46:10;1.58;;;1.58;;
70667;SDS011;58242;51.250;-1.118;2023-09-12T13:48:35;1.85;;;1.75;;
70667;SDS011;58242;51.250;-1.118;2023-09-12T13:51:00;2.35;;;1.60;;
70667;SDS011;58242;51.250;-1.118;2023-09-12T13:53:26;2.00;;;1.90;;
70667;SDS011;58242;51.250;-1.118;2023-09-12T13:55:51;1.60;;;1.60;;
70667;SDS011;58242;51.250;-1.118;2023-09-12T13:58:16;1.92;;;1.80;;
70667;SDS011;58242;51.250;-1.118;2023-09-12T14:00:42;2.25;;;2.08;;
70667;SDS011;58242;51.250;-1.118;2023-09-12T14:03:07;1.90;;;1.80;;
70667;SDS011;58242;51.250;-1.118;2023-09-12T14:05:32;1.80;;;1.70;;
70667;SDS011;58242;51.250;-1.118;2023-09-12T14:07:57;2.20;;;2.10;;
70667;SDS011;58242;51.250;-1.118;2023-09-12T14:10:23;2.70;;;2.50;;
70667;SDS011;58242;51.250;-1.118;2023-09-12T14:12:48;2.28;;;2.17;;
70667;SDS011;58242;51.250;-1.118;2023-09-12T14:15:13;3.08;;;2.80;;
70667;SDS011;58242;51.250;-1.118;2023-09-12T14:17:40;2.45;;;2.25;;
70667;SDS011;58242;51.250;-1.118;2023-09-12T14:20:06;2.53;;;2.33;;
70667;SDS011;58242;51.250;-1.118;2023-09-12T14:22:33;2.60;;;2.50;;
70667;SDS011;58242;51.250;-1.118;2023-09-12T14:24:58;2.17;;;2.08;;
70667;SDS011;58242;51.250;-1.118;2023-09-12T14:27:24;2.50;;;2.30;;
70667;SDS011;58242;51.250;-1.118;2023-09-12T14:29:49;2.35;;;2.25;;
70667;SDS011;58242;51.250;-1.118;2023-09-12T14:32:15;2.60;;;2.40;;
70667;SDS011;58242;51.250;-1.118;2023-09-12T14:34:41;2.30;;;2.20;;
70667;SDS011;58242;51.250;-1.118;2023-09-12T14:37:06;2.10;;;2.00;;
70667;SDS011;58242;51.250;-1.118;2023-09-12T14:39:31;1.92;;;1.90;;
70667;SDS011;58242;51.250;-1.118;2023-09-12T14:41:57;2.10;;;2.00;;